Saint Thomas, ND

4:11 PM CST on December 07, 2016 (GMT -0600)
NE St Thomas | | Change Station

Elev 814 ft 48.66 °N, 97.38 °W | Updated 26 minutes ago

Snow
Snow
20.9 °F
Feels Like 4 °F
N
24.0
Wind Variable Wind from NW
Gusts 29.0 mph

Today
High -- | Low -- °F
--% Chance of Precip.
Yesterday
High -- | Low -- °F
Precip. -- in
Pressure 30.05 in
Visibility 0.5 miles
Clouds
Windchill 4 °F
Dew Point 19 °F
Humidity 94%
Rainfall 0.00 in
Snow Depth Not available.
8:08 AM 4:34 PM
First Quarter, 56% visible
METAR K2C8 072155Z AUTO 33022G30KT 1/2SM SN M06/M08 A3005 RMK AO2 P0052
Pressure 30.05 in
Visibility 0.5 miles
Clouds
Windchill 4 °F
Dew Point 19 °F
Humidity 94%
Rainfall 0.00 in
Snow Depth Not available.
8:08 AM 4:34 PM
First Quarter, 56% visible
METAR K2C8 072155Z AUTO 33022G30KT 1/2SM SN M06/M08 A3005 RMK AO2 P0052

10-Day Weather Forecast

Almanac

Astronomy

Dec. 07, 2016 Rise Set
Actual Time
Civil Twilight
Nautical Twilight
Astronomical Twilight
Moon
Length of Visible Light
Length of Day
Tomorrow will be .
, % of the Moon is Illuminated

Today's Extremes

State Highs State Lows

Community

WunderPhotos

Upload Photos

1,956,209 photos uploaded!

WunderBlog® & News

Nearby

Air Quality

  Air Quality AQ Index Pollutant
Not available.

Snow Depth

Station Depth Elevation

Earthquake Activity

City Distance Mag. Time & Date
Minimum magnitude displayed is 2.5.

Coastal Water Temperatures

Place Temperature

Stations

Nearby Weather Stations

Station Location Temp. Windchill Dew Point Humidity Wind Precip. Elev Updated Type
                   

Watches & Warnings

Winter Weather Advisory
Issued: 3:29 PM CST Dec. 7, 2016 – National Weather Service

... Winter Weather Advisory remains in effect until 6 PM CST this
evening...

* timing... reduced visibility in open areas due to blowing snow
and scattered snow showers... diminishing around 6 PM.

* Snow and ice accumulations... additional fluffy snow
accumulations of up to 1 inch are expected.

* Winds / visibilities... winds gusting as high as 40 mph will
cause areas of blowing and drifting snow... especially in open
areas.

Precautionary/preparedness actions...

A Winter Weather Advisory means that periods of snow... sleet or
freezing rain will cause travel difficulties. Be prepared for
slippery roads and limited visibilities... and use caution while
driving. The latest Road conditions for the state you are calling
from can be obtained by calling 5 1 1.